sensor_id;sensor_type;location;lat;lon;timestamp;P1;durP1;ratioP1;P2;durP2;ratioP2
40635;SDS011;26642;55.766;37.828;2023-06-26T00:01:35;40.88;;;27.00;;
40635;SDS011;26642;55.766;37.828;2023-06-26T00:04:01;50.95;;;32.10;;
40635;SDS011;26642;55.766;37.828;2023-06-26T00:06:27;65.35;;;38.25;;
40635;SDS011;26642;55.766;37.828;2023-06-26T00:08:54;69.35;;;39.40;;
40635;SDS011;26642;55.766;37.828;2023-06-26T00:11:21;60.47;;;37.75;;
40635;SDS011;26642;55.766;37.828;2023-06-26T00:13:47;64.10;;;37.53;;
40635;SDS011;26642;55.766;37.828;2023-06-26T00:16:13;56.92;;;34.70;;
40635;SDS011;26642;55.766;37.828;2023-06-26T00:18:40;62.75;;;36.80;;
40635;SDS011;26642;55.766;37.828;2023-06-26T00:21:06;56.72;;;34.90;;
40635;SDS011;26642;55.766;37.828;2023-06-26T00:23:32;50.97;;;32.90;;
40635;SDS011;26642;55.766;37.828;2023-06-26T00:26:03;48.47;;;29.88;;
40635;SDS011;26642;55.766;37.828;2023-06-26T00:28:29;47.63;;;30.23;;
40635;SDS011;26642;55.766;37.828;2023-06-26T00:30:56;46.38;;;28.58;;
40635;SDS011;26642;55.766;37.828;2023-06-26T00:33:22;43.85;;;28.10;;
40635;SDS011;26642;55.766;37.828;2023-06-26T00:35:49;38.72;;;27.10;;
40635;SDS011;26642;55.766;37.828;2023-06-26T00:38:15;40.05;;;26.58;;
40635;SDS011;26642;55.766;37.828;2023-06-26T00:40:42;40.22;;;26.33;;
40635;SDS011;26642;55.766;37.828;2023-06-26T00:43:09;37.38;;;24.95;;
40635;SDS011;26642;55.766;37.828;2023-06-26T00:45:35;36.58;;;25.33;;
40635;SDS011;26642;55.766;37.828;2023-06-26T00:48:01;35.20;;;23.45;;
40635;SDS011;26642;55.766;37.828;2023-06-26T00:50:28;35.72;;;24.20;;
40635;SDS011;26642;55.766;37.828;2023-06-26T00:52:54;33.53;;;23.85;;
40635;SDS011;26642;55.766;37.828;2023-06-26T00:55:25;33.90;;;23.40;;
40635;SDS011;26642;55.766;37.828;2023-06-26T00:57:52;32.65;;;23.45;;
40635;SDS011;26642;55.766;37.828;2023-06-26T01:00:20;34.22;;;23.52;;
40635;SDS011;26642;55.766;37.828;2023-06-26T01:02:46;34.92;;;22.83;;
40635;SDS011;26642;55.766;37.828;2023-06-26T01:05:12;34.50;;;22.58;;
40635;SDS011;26642;55.766;37.828;2023-06-26T01:07:48;30.38;;;22.25;;
40635;SDS011;26642;55.766;37.828;2023-06-26T01:10:15;30.85;;;22.55;;
40635;SDS011;26642;55.766;37.828;2023-06-26T01:12:41;35.97;;;22.48;;
40635;SDS011;26642;55.766;37.828;2023-06-26T01:15:07;30.05;;;20.73;;
40635;SDS011;26642;55.766;37.828;2023-06-26T01:17:34;23.05;;;17.85;;
40635;SDS011;26642;55.766;37.828;2023-06-26T01:20:03;22.08;;;17.15;;
40635;SDS011;26642;55.766;37.828;2023-06-26T01:25:21;20.30;;;17.33;;
40635;SDS011;26642;55.766;37.828;2023-06-26T01:28:04;23.33;;;17.10;;
40635;SDS011;26642;55.766;37.828;2023-06-26T01:30:32;23.70;;;18.30;;
40635;SDS011;26642;55.766;37.828;2023-06-26T01:33:03;22.55;;;17.98;;
40635;SDS011;26642;55.766;37.828;2023-06-26T01:35:29;30.38;;;19.40;;
40635;SDS011;26642;55.766;37.828;2023-06-26T01:40:41;28.30;;;20.10;;
40635;SDS011;26642;55.766;37.828;2023-06-26T01:43:11;23.33;;;18.63;;
40635;SDS011;26642;55.766;37.828;2023-06-26T01:46:08;25.05;;;18.73;;
40635;SDS011;26642;55.766;37.828;2023-06-26T01:49:09;24.77;;;18.15;;
40635;SDS011;26642;55.766;37.828;2023-06-26T01:51:43;23.92;;;18.42;;
40635;SDS011;26642;55.766;37.828;2023-06-26T01:54:18;23.13;;;18.10;;
40635;SDS011;26642;55.766;37.828;2023-06-26T01:56:48;28.48;;;18.73;;
40635;SDS011;26642;55.766;37.828;2023-06-26T01:59:15;26.75;;;19.23;;
40635;SDS011;26642;55.766;37.828;2023-06-26T02:01:44;22.40;;;19.27;;
40635;SDS011;26642;55.766;37.828;2023-06-26T02:04:10;29.50;;;20.38;;
40635;SDS011;26642;55.766;37.828;2023-06-26T02:06:36;26.08;;;19.38;;
40635;SDS011;26642;55.766;37.828;2023-06-26T02:09:02;27.05;;;19.30;;
40635;SDS011;26642;55.766;37.828;2023-06-26T02:11:30;24.13;;;19.13;;
40635;SDS011;26642;55.766;37.828;2023-06-26T02:13:57;24.50;;;19.25;;
40635;SDS011;26642;55.766;37.828;2023-06-26T02:16:23;22.83;;;17.23;;
40635;SDS011;26642;55.766;37.828;2023-06-26T02:18:49;19.73;;;17.00;;
40635;SDS011;26642;55.766;37.828;2023-06-26T02:21:15;22.70;;;16.30;;
40635;SDS011;26642;55.766;37.828;2023-06-26T02:23:41;24.30;;;17.42;;
40635;SDS011;26642;55.766;37.828;2023-06-26T02:26:07;25.52;;;18.35;;
40635;SDS011;26642;55.766;37.828;2023-06-26T02:28:33;22.30;;;16.90;;
40635;SDS011;26642;55.766;37.828;2023-06-26T02:30:59;21.20;;;16.00;;
40635;SDS011;26642;55.766;37.828;2023-06-26T02:33:26;18.70;;;14.45;;
40635;SDS011;26642;55.766;37.828;2023-06-26T02:35:52;18.92;;;14.85;;
40635;SDS011;26642;55.766;37.828;2023-06-26T02:38:18;21.27;;;15.23;;
40635;SDS011;26642;55.766;37.828;2023-06-26T02:40:45;22.70;;;15.88;;
40635;SDS011;26642;55.766;37.828;2023-06-26T02:43:12;20.50;;;16.80;;
40635;SDS011;26642;55.766;37.828;2023-06-26T02:45:38;24.95;;;16.45;;
40635;SDS011;26642;55.766;37.828;2023-06-26T02:48:04;21.45;;;15.82;;
40635;SDS011;26642;55.766;37.828;2023-06-26T02:50:32;19.98;;;16.55;;
40635;SDS011;26642;55.766;37.828;2023-06-26T02:53:11;20.10;;;15.32;;
40635;SDS011;26642;55.766;37.828;2023-06-26T02:55:41;20.08;;;15.68;;
40635;SDS011;26642;55.766;37.828;2023-06-26T02:58:07;17.23;;;14.73;;
40635;SDS011;26642;55.766;37.828;2023-06-26T03:00:34;21.08;;;15.23;;
40635;SDS011;26642;55.766;37.828;2023-06-26T03:03:03;20.65;;;15.57;;
40635;SDS011;26642;55.766;37.828;2023-06-26T03:05:29;18.35;;;15.40;;
40635;SDS011;26642;55.766;37.828;2023-06-26T03:08:02;18.50;;;15.52;;
40635;SDS011;26642;55.766;37.828;2023-06-26T03:10:28;19.95;;;15.40;;
40635;SDS011;26642;55.766;37.828;2023-06-26T03:12:54;21.75;;;15.63;;
40635;SDS011;26642;55.766;37.828;2023-06-26T03:15:20;22.58;;;16.48;;
40635;SDS011;26642;55.766;37.828;2023-06-26T03:17:46;23.42;;;17.02;;
40635;SDS011;26642;55.766;37.828;2023-06-26T03:20:20;24.42;;;17.75;;
40635;SDS011;26642;55.766;37.828;2023-06-26T03:22:50;25.77;;;17.25;;
40635;SDS011;26642;55.766;37.828;2023-06-26T03:25:18;21.67;;;16.63;;
40635;SDS011;26642;55.766;37.828;2023-06-26T03:27:44;23.98;;;17.90;;
40635;SDS011;26642;55.766;37.828;2023-06-26T03:30:13;28.23;;;18.13;;
40635;SDS011;26642;55.766;37.828;2023-06-26T03:32:44;24.60;;;18.17;;
40635;SDS011;26642;55.766;37.828;2023-06-26T03:35:11;22.98;;;17.90;;
40635;SDS011;26642;55.766;37.828;2023-06-26T03:37:37;24.80;;;16.50;;
40635;SDS011;26642;55.766;37.828;2023-06-26T03:40:04;24.10;;;17.02;;
40635;SDS011;26642;55.766;37.828;2023-06-26T03:42:31;25.70;;;17.63;;
40635;SDS011;26642;55.766;37.828;2023-06-26T03:44:58;22.08;;;16.92;;
40635;SDS011;26642;55.766;37.828;2023-06-26T03:47:24;20.02;;;16.23;;
40635;SDS011;26642;55.766;37.828;2023-06-26T03:49:56;20.50;;;16.23;;
40635;SDS011;26642;55.766;37.828;2023-06-26T03:52:22;22.38;;;16.95;;
40635;SDS011;26642;55.766;37.828;2023-06-26T03:54:48;21.77;;;17.23;;
40635;SDS011;26642;55.766;37.828;2023-06-26T03:57:16;18.42;;;15.95;;
40635;SDS011;26642;55.766;37.828;2023-06-26T03:59:42;17.40;;;14.68;;
40635;SDS011;26642;55.766;37.828;2023-06-26T04:02:08;20.83;;;16.55;;
40635;SDS011;26642;55.766;37.828;2023-06-26T04:04:34;18.63;;;14.93;;
40635;SDS011;26642;55.766;37.828;2023-06-26T04:07:00;18.98;;;14.85;;
40635;SDS011;26642;55.766;37.828;2023-06-26T04:09:26;22.40;;;16.38;;
40635;SDS011;26642;55.766;37.828;2023-06-26T04:11:52;17.95;;;13.07;;
40635;SDS011;26642;55.766;37.828;2023-06-26T04:14:18;14.40;;;12.88;;
40635;SDS011;26642;55.766;37.828;2023-06-26T04:16:44;18.33;;;14.65;;
40635;SDS011;26642;55.766;37.828;2023-06-26T04:19:10;15.48;;;13.00;;
40635;SDS011;26642;55.766;37.828;2023-06-26T04:21:37;20.20;;;14.32;;
40635;SDS011;26642;55.766;37.828;2023-06-26T04:24:03;21.65;;;15.40;;
40635;SDS011;26642;55.766;37.828;2023-06-26T04:26:29;23.33;;;14.52;;
40635;SDS011;26642;55.766;37.828;2023-06-26T04:28:55;21.00;;;14.55;;
40635;SDS011;26642;55.766;37.828;2023-06-26T04:31:21;18.60;;;13.27;;
40635;SDS011;26642;55.766;37.828;2023-06-26T04:33:48;22.13;;;14.10;;
40635;SDS011;26642;55.766;37.828;2023-06-26T04:36:16;18.60;;;13.45;;
40635;SDS011;26642;55.766;37.828;2023-06-26T04:38:43;15.65;;;12.75;;
40635;SDS011;26642;55.766;37.828;2023-06-26T04:41:09;13.18;;;10.60;;
40635;SDS011;26642;55.766;37.828;2023-06-26T04:43:35;13.77;;;10.35;;
40635;SDS011;26642;55.766;37.828;2023-06-26T04:46:05;12.90;;;10.75;;
40635;SDS011;26642;55.766;37.828;2023-06-26T04:48:31;12.32;;;9.40;;
40635;SDS011;26642;55.766;37.828;2023-06-26T04:50:58;11.75;;;9.10;;
40635;SDS011;26642;55.766;37.828;2023-06-26T04:53:24;10.98;;;9.85;;
40635;SDS011;26642;55.766;37.828;2023-06-26T04:55:50;10.45;;;9.35;;
40635;SDS011;26642;55.766;37.828;2023-06-26T04:58:17;13.25;;;8.95;;
40635;SDS011;26642;55.766;37.828;2023-06-26T05:00:46;13.77;;;10.15;;
40635;SDS011;26642;55.766;37.828;2023-06-26T05:03:13;10.30;;;9.00;;
40635;SDS011;26642;55.766;37.828;2023-06-26T05:05:42;9.82;;;8.68;;
40635;SDS011;26642;55.766;37.828;2023-06-26T05:08:15;9.98;;;8.48;;
40635;SDS011;26642;55.766;37.828;2023-06-26T05:10:42;10.35;;;8.77;;
40635;SDS011;26642;55.766;37.828;2023-06-26T05:13:11;13.75;;;8.15;;
40635;SDS011;26642;55.766;37.828;2023-06-26T05:15:40;9.70;;;8.18;;
40635;SDS011;26642;55.766;37.828;2023-06-26T05:18:07;8.43;;;7.40;;
40635;SDS011;26642;55.766;37.828;2023-06-26T05:20:34;7.55;;;6.68;;
40635;SDS011;26642;55.766;37.828;2023-06-26T05:23:04;9.35;;;7.10;;
40635;SDS011;26642;55.766;37.828;2023-06-26T05:25:31;8.27;;;6.53;;
40635;SDS011;26642;55.766;37.828;2023-06-26T05:27:59;7.30;;;6.40;;
40635;SDS011;26642;55.766;37.828;2023-06-26T05:30:25;6.22;;;5.55;;
40635;SDS011;26642;55.766;37.828;2023-06-26T05:32:53;8.73;;;6.13;;
40635;SDS011;26642;55.766;37.828;2023-06-26T05:35:20;6.72;;;5.90;;
40635;SDS011;26642;55.766;37.828;2023-06-26T05:37:49;6.32;;;5.72;;
40635;SDS011;26642;55.766;37.828;2023-06-26T05:40:19;6.30;;;5.70;;
40635;SDS011;26642;55.766;37.828;2023-06-26T05:42:45;5.45;;;4.95;;
40635;SDS011;26642;55.766;37.828;2023-06-26T05:45:12;7.40;;;5.82;;
40635;SDS011;26642;55.766;37.828;2023-06-26T05:47:38;5.97;;;5.47;;
40635;SDS011;26642;55.766;37.828;2023-06-26T05:50:05;6.50;;;5.78;;
40635;SDS011;26642;55.766;37.828;2023-06-26T05:52:32;6.82;;;5.80;;
40635;SDS011;26642;55.766;37.828;2023-06-26T05:54:58;5.97;;;5.47;;
40635;SDS011;26642;55.766;37.828;2023-06-26T05:57:26;5.68;;;5.18;;
40635;SDS011;26642;55.766;37.828;2023-06-26T05:59:53;6.43;;;5.63;;
40635;SDS011;26642;55.766;37.828;2023-06-26T06:02:20;5.97;;;5.38;;
40635;SDS011;26642;55.766;37.828;2023-06-26T06:04:46;6.00;;;5.47;;
40635;SDS011;26642;55.766;37.828;2023-06-26T06:07:12;6.72;;;5.38;;
40635;SDS011;26642;55.766;37.828;2023-06-26T06:09:38;5.97;;;5.38;;
40635;SDS011;26642;55.766;37.828;2023-06-26T06:12:05;6.90;;;6.05;;
40635;SDS011;26642;55.766;37.828;2023-06-26T06:14:32;6.45;;;5.75;;
40635;SDS011;26642;55.766;37.828;2023-06-26T06:16:59;5.57;;;5.07;;
40635;SDS011;26642;55.766;37.828;2023-06-26T06:19:25;5.97;;;5.38;;
40635;SDS011;26642;55.766;37.828;2023-06-26T06:21:51;5.80;;;5.30;;
40635;SDS011;26642;55.766;37.828;2023-06-26T06:24:17;6.63;;;5.57;;
40635;SDS011;26642;55.766;37.828;2023-06-26T06:26:43;5.45;;;5.05;;
40635;SDS011;26642;55.766;37.828;2023-06-26T06:29:09;6.20;;;5.60;;
40635;SDS011;26642;55.766;37.828;2023-06-26T06:31:35;6.05;;;5.07;;
40635;SDS011;26642;55.766;37.828;2023-06-26T06:34:01;5.32;;;4.93;;
40635;SDS011;26642;55.766;37.828;2023-06-26T06:36:27;6.75;;;5.60;;
40635;SDS011;26642;55.766;37.828;2023-06-26T06:38:53;5.82;;;5.18;;
40635;SDS011;26642;55.766;37.828;2023-06-26T06:41:20;5.95;;;5.45;;
40635;SDS011;26642;55.766;37.828;2023-06-26T06:43:46;5.70;;;5.20;;
40635;SDS011;26642;55.766;37.828;2023-06-26T06:46:12;5.80;;;5.25;;
40635;SDS011;26642;55.766;37.828;2023-06-26T06:48:38;5.43;;;4.93;;
40635;SDS011;26642;55.766;37.828;2023-06-26T06:51:04;5.43;;;4.93;;
40635;SDS011;26642;55.766;37.828;2023-06-26T06:53:32;6.50;;;5.90;;
40635;SDS011;26642;55.766;37.828;2023-06-26T06:55:58;6.13;;;5.43;;
40635;SDS011;26642;55.766;37.828;2023-06-26T06:58:24;5.95;;;5.35;;
40635;SDS011;26642;55.766;37.828;2023-06-26T07:00:51;5.43;;;4.93;;
40635;SDS011;26642;55.766;37.828;2023-06-26T07:03:17;5.22;;;4.72;;
40635;SDS011;26642;55.766;37.828;2023-06-26T07:05:45;4.65;;;4.25;;
40635;SDS011;26642;55.766;37.828;2023-06-26T07:08:11;5.07;;;4.68;;
40635;SDS011;26642;55.766;37.828;2023-06-26T07:10:38;4.95;;;4.40;;
40635;SDS011;26642;55.766;37.828;2023-06-26T07:13:04;5.68;;;4.95;;
40635;SDS011;26642;55.766;37.828;2023-06-26T07:15:30;5.78;;;4.78;;
40635;SDS011;26642;55.766;37.828;2023-06-26T07:17:56;5.57;;;4.95;;
40635;SDS011;26642;55.766;37.828;2023-06-26T07:20:22;5.55;;;4.47;;
40635;SDS011;26642;55.766;37.828;2023-06-26T07:22:49;5.40;;;4.75;;
40635;SDS011;26642;55.766;37.828;2023-06-26T07:25:16;6.03;;;5.10;;
40635;SDS011;26642;55.766;37.828;2023-06-26T07:27:42;6.22;;;5.63;;
40635;SDS011;26642;55.766;37.828;2023-06-26T07:30:09;6.20;;;5.60;;
40635;SDS011;26642;55.766;37.828;2023-06-26T07:32:36;6.60;;;5.88;;
40635;SDS011;26642;55.766;37.828;2023-06-26T07:35:03;5.70;;;5.20;;
40635;SDS011;26642;55.766;37.828;2023-06-26T07:37:29;6.30;;;5.68;;
40635;SDS011;26642;55.766;37.828;2023-06-26T07:39:55;5.90;;;5.30;;
40635;SDS011;26642;55.766;37.828;2023-06-26T07:42:21;5.60;;;5.10;;
40635;SDS011;26642;55.766;37.828;2023-06-26T07:44:47;6.22;;;5.60;;
40635;SDS011;26642;55.766;37.828;2023-06-26T07:47:14;6.93;;;5.70;;
40635;SDS011;26642;55.766;37.828;2023-06-26T07:49:40;6.35;;;5.25;;
40635;SDS011;26642;55.766;37.828;2023-06-26T07:52:06;5.45;;;4.95;;
40635;SDS011;26642;55.766;37.828;2023-06-26T07:54:35;7.53;;;5.43;;
40635;SDS011;26642;55.766;37.828;2023-06-26T07:57:03;7.55;;;6.80;;
40635;SDS011;26642;55.766;37.828;2023-06-26T07:59:34;6.55;;;5.43;;
40635;SDS011;26642;55.766;37.828;2023-06-26T08:02:00;7.10;;;5.95;;
40635;SDS011;26642;55.766;37.828;2023-06-26T08:04:27;6.38;;;5.78;;
40635;SDS011;26642;55.766;37.828;2023-06-26T08:06:57;5.97;;;5.10;;
40635;SDS011;26642;55.766;37.828;2023-06-26T08:09:26;6.10;;;5.60;;
40635;SDS011;26642;55.766;37.828;2023-06-26T08:11:54;6.85;;;5.82;;
40635;SDS011;26642;55.766;37.828;2023-06-26T08:14:20;6.43;;;5.82;;
40635;SDS011;26642;55.766;37.828;2023-06-26T08:16:47;6.70;;;5.30;;
40635;SDS011;26642;55.766;37.828;2023-06-26T08:19:13;6.88;;;6.10;;
40635;SDS011;26642;55.766;37.828;2023-06-26T08:21:40;7.57;;;5.30;;
40635;SDS011;26642;55.766;37.828;2023-06-26T08:24:10;7.82;;;5.97;;
40635;SDS011;26642;55.766;37.828;2023-06-26T08:26:36;8.30;;;5.55;;
40635;SDS011;26642;55.766;37.828;2023-06-26T08:29:02;8.60;;;5.72;;
40635;SDS011;26642;55.766;37.828;2023-06-26T08:31:35;5.70;;;5.20;;
40635;SDS011;26642;55.766;37.828;2023-06-26T08:34:02;5.88;;;5.38;;
40635;SDS011;26642;55.766;37.828;2023-06-26T08:36:29;6.20;;;5.60;;
40635;SDS011;26642;55.766;37.828;2023-06-26T08:38:55;6.45;;;5.40;;
40635;SDS011;26642;55.766;37.828;2023-06-26T08:41:21;6.20;;;5.60;;
40635;SDS011;26642;55.766;37.828;2023-06-26T08:43:47;6.22;;;5.35;;
40635;SDS011;26642;55.766;37.828;2023-06-26T08:46:15;6.75;;;5.65;;
40635;SDS011;26642;55.766;37.828;2023-06-26T08:48:41;6.10;;;5.50;;
40635;SDS011;26642;55.766;37.828;2023-06-26T08:51:13;6.40;;;5.80;;
40635;SDS011;26642;55.766;37.828;2023-06-26T08:56:24;6.60;;;5.85;;
40635;SDS011;26642;55.766;37.828;2023-06-26T08:58:53;6.65;;;5.93;;
40635;SDS011;26642;55.766;37.828;2023-06-26T09:01:20;11.07;;;9.63;;
40635;SDS011;26642;55.766;37.828;2023-06-26T09:03:46;10.82;;;9.65;;
40635;SDS011;26642;55.766;37.828;2023-06-26T09:06:12;8.40;;;7.53;;
40635;SDS011;26642;55.766;37.828;2023-06-26T09:08:38;6.57;;;5.97;;
40635;SDS011;26642;55.766;37.828;2023-06-26T09:11:04;7.30;;;6.57;;
40635;SDS011;26642;55.766;37.828;2023-06-26T09:13:30;6.88;;;6.28;;
40635;SDS011;26642;55.766;37.828;2023-06-26T09:15:57;7.13;;;6.40;;
40635;SDS011;26642;55.766;37.828;2023-06-26T09:18:24;7.40;;;6.25;;
40635;SDS011;26642;55.766;37.828;2023-06-26T09:20:53;6.38;;;5.78;;
40635;SDS011;26642;55.766;37.828;2023-06-26T09:23:20;6.70;;;5.70;;
40635;SDS011;26642;55.766;37.828;2023-06-26T09:25:47;8.18;;;6.43;;
40635;SDS011;26642;55.766;37.828;2023-06-26T09:28:13;6.32;;;5.72;;
40635;SDS011;26642;55.766;37.828;2023-06-26T09:30:40;6.53;;;5.88;;
40635;SDS011;26642;55.766;37.828;2023-06-26T09:33:16;6.53;;;5.82;;
40635;SDS011;26642;55.766;37.828;2023-06-26T09:35:44;6.43;;;5.82;;
40635;SDS011;26642;55.766;37.828;2023-06-26T09:38:11;6.00;;;5.50;;
40635;SDS011;26642;55.766;37.828;2023-06-26T09:40:38;5.75;;;5.25;;
40635;SDS011;26642;55.766;37.828;2023-06-26T09:43:07;6.53;;;5.80;;
40635;SDS011;26642;55.766;37.828;2023-06-26T09:45:35;7.60;;;6.10;;
40635;SDS011;26642;55.766;37.828;2023-06-26T09:48:04;5.50;;;4.95;;
40635;SDS011;26642;55.766;37.828;2023-06-26T09:50:32;6.60;;;5.45;;
40635;SDS011;26642;55.766;37.828;2023-06-26T09:53:11;7.40;;;5.97;;
40635;SDS011;26642;55.766;37.828;2023-06-26T09:55:43;6.57;;;5.72;;
40635;SDS011;26642;55.766;37.828;2023-06-26T09:58:12;9.73;;;6.18;;
40635;SDS011;26642;55.766;37.828;2023-06-26T10:00:42;6.55;;;5.85;;
40635;SDS011;26642;55.766;37.828;2023-06-26T10:03:12;6.78;;;6.00;;
40635;SDS011;26642;55.766;37.828;2023-06-26T10:05:38;6.55;;;5.63;;
40635;SDS011;26642;55.766;37.828;2023-06-26T10:08:05;6.35;;;5.75;;
40635;SDS011;26642;55.766;37.828;2023-06-26T10:10:33;5.88;;;5.38;;
40635;SDS011;26642;55.766;37.828;2023-06-26T10:13:04;7.32;;;5.90;;
40635;SDS011;26642;55.766;37.828;2023-06-26T10:15:39;6.78;;;6.18;;
40635;SDS011;26642;55.766;37.828;2023-06-26T10:18:07;6.72;;;5.50;;
40635;SDS011;26642;55.766;37.828;2023-06-26T10:20:33;6.30;;;5.70;;
40635;SDS011;26642;55.766;37.828;2023-06-26T10:23:00;7.20;;;5.93;;
40635;SDS011;26642;55.766;37.828;2023-06-26T10:25:31;7.38;;;5.35;;
40635;SDS011;26642;55.766;37.828;2023-06-26T10:27:58;7.45;;;5.70;;
40635;SDS011;26642;55.766;37.828;2023-06-26T10:30:29;6.85;;;6.20;;
40635;SDS011;26642;55.766;37.828;2023-06-26T10:32:58;6.43;;;5.80;;
40635;SDS011;26642;55.766;37.828;2023-06-26T10:35:25;6.40;;;5.75;;
40635;SDS011;26642;55.766;37.828;2023-06-26T10:37:53;6.53;;;5.72;;
40635;SDS011;26642;55.766;37.828;2023-06-26T10:40:27;7.47;;;5.60;;
40635;SDS011;26642;55.766;37.828;2023-06-26T10:43:08;7.18;;;5.53;;
40635;SDS011;26642;55.766;37.828;2023-06-26T10:45:35;6.55;;;5.53;;
40635;SDS011;26642;55.766;37.828;2023-06-26T10:48:02;10.00;;;6.10;;
40635;SDS011;26642;55.766;37.828;2023-06-26T10:50:32;6.53;;;5.85;;
40635;SDS011;26642;55.766;37.828;2023-06-26T10:55:41;6.50;;;5.82;;
40635;SDS011;26642;55.766;37.828;2023-06-26T11:01:22;6.22;;;5.32;;
40635;SDS011;26642;55.766;37.828;2023-06-26T11:04:05;6.05;;;5.50;;
40635;SDS011;26642;55.766;37.828;2023-06-26T11:06:32;6.30;;;5.70;;
40635;SDS011;26642;55.766;37.828;2023-06-26T11:09:07;6.13;;;5.53;;
40635;SDS011;26642;55.766;37.828;2023-06-26T11:14:26;6.32;;;5.70;;
40635;SDS011;26642;55.766;37.828;2023-06-26T11:16:54;6.38;;;5.75;;
40635;SDS011;26642;55.766;37.828;2023-06-26T11:19:22;5.88;;;5.25;;
40635;SDS011;26642;55.766;37.828;2023-06-26T11:21:51;7.00;;;5.47;;
40635;SDS011;26642;55.766;37.828;2023-06-26T11:24:23;5.60;;;5.10;;
40635;SDS011;26642;55.766;37.828;2023-06-26T11:26:49;6.22;;;5.13;;
40635;SDS011;26642;55.766;37.828;2023-06-26T11:29:15;6.63;;;5.68;;
40635;SDS011;26642;55.766;37.828;2023-06-26T11:31:41;5.90;;;5.30;;
40635;SDS011;26642;55.766;37.828;2023-06-26T11:34:08;6.28;;;5.70;;
40635;SDS011;26642;55.766;37.828;2023-06-26T11:36:40;6.65;;;5.40;;
40635;SDS011;26642;55.766;37.828;2023-06-26T11:39:07;6.05;;;5.45;;
40635;SDS011;26642;55.766;37.828;2023-06-26T11:41:34;7.45;;;5.60;;
40635;SDS011;26642;55.766;37.828;2023-06-26T11:44:02;5.82;;;5.32;;
40635;SDS011;26642;55.766;37.828;2023-06-26T11:46:29;5.90;;;5.30;;
40635;SDS011;26642;55.766;37.828;2023-06-26T11:48:56;6.20;;;5.25;;
40635;SDS011;26642;55.766;37.828;2023-06-26T11:51:22;5.18;;;4.68;;
40635;SDS011;26642;55.766;37.828;2023-06-26T11:53:48;6.57;;;5.18;;
40635;SDS011;26642;55.766;37.828;2023-06-26T11:56:15;6.13;;;5.47;;
40635;SDS011;26642;55.766;37.828;2023-06-26T11:58:57;6.18;;;5.15;;
40635;SDS011;26642;55.766;37.828;2023-06-26T12:01:35;6.13;;;5.32;;
40635;SDS011;26642;55.766;37.828;2023-06-26T12:04:07;5.47;;;4.97;;
40635;SDS011;26642;55.766;37.828;2023-06-26T12:06:40;6.03;;;5.43;;
40635;SDS011;26642;55.766;37.828;2023-06-26T12:09:08;5.97;;;5.38;;
40635;SDS011;26642;55.766;37.828;2023-06-26T12:11:39;6.05;;;5.05;;
40635;SDS011;26642;55.766;37.828;2023-06-26T12:14:07;5.90;;;5.10;;
40635;SDS011;26642;55.766;37.828;2023-06-26T12:16:34;8.35;;;5.45;;
40635;SDS011;26642;55.766;37.828;2023-06-26T12:19:05;6.45;;;5.85;;
40635;SDS011;26642;55.766;37.828;2023-06-26T12:24:06;6.20;;;5.57;;
40635;SDS011;26642;55.766;37.828;2023-06-26T12:26:38;5.45;;;4.95;;
40635;SDS011;26642;55.766;37.828;2023-06-26T12:29:07;5.70;;;5.18;;
40635;SDS011;26642;55.766;37.828;2023-06-26T12:31:44;6.03;;;5.43;;
40635;SDS011;26642;55.766;37.828;2023-06-26T12:34:12;6.30;;;5.32;;
40635;SDS011;26642;55.766;37.828;2023-06-26T12:36:42;7.28;;;5.43;;
40635;SDS011;26642;55.766;37.828;2023-06-26T12:39:19;5.80;;;4.97;;
40635;SDS011;26642;55.766;37.828;2023-06-26T12:41:46;6.32;;;5.63;;
40635;SDS011;26642;55.766;37.828;2023-06-26T12:44:26;5.63;;;5.10;;
40635;SDS011;26642;55.766;37.828;2023-06-26T12:46:57;7.10;;;5.68;;
40635;SDS011;26642;55.766;37.828;2023-06-26T12:49:45;7.97;;;5.63;;
40635;SDS011;26642;55.766;37.828;2023-06-26T12:52:15;6.05;;;5.45;;
40635;SDS011;26642;55.766;37.828;2023-06-26T12:54:42;5.70;;;5.20;;
40635;SDS011;26642;55.766;37.828;2023-06-26T12:57:08;6.00;;;5.40;;
40635;SDS011;26642;55.766;37.828;2023-06-26T12:59:36;5.90;;;5.40;;
40635;SDS011;26642;55.766;37.828;2023-06-26T13:02:03;5.85;;;5.30;;
40635;SDS011;26642;55.766;37.828;2023-06-26T13:04:29;6.78;;;5.43;;
40635;SDS011;26642;55.766;37.828;2023-06-26T13:06:56;5.30;;;4.80;;
40635;SDS011;26642;55.766;37.828;2023-06-26T13:09:23;5.68;;;5.10;;
40635;SDS011;26642;55.766;37.828;2023-06-26T13:11:50;5.45;;;4.95;;
40635;SDS011;26642;55.766;37.828;2023-06-26T13:14:17;5.20;;;4.72;;
40635;SDS011;26642;55.766;37.828;2023-06-26T13:16:43;5.07;;;4.68;;
40635;SDS011;26642;55.766;37.828;2023-06-26T13:19:09;5.60;;;4.65;;
40635;SDS011;26642;55.766;37.828;2023-06-26T13:21:35;5.10;;;4.60;;
40635;SDS011;26642;55.766;37.828;2023-06-26T13:24:01;5.22;;;4.78;;
40635;SDS011;26642;55.766;37.828;2023-06-26T13:26:31;6.88;;;5.18;;
40635;SDS011;26642;55.766;37.828;2023-06-26T13:28:57;5.38;;;4.93;;
40635;SDS011;26642;55.766;37.828;2023-06-26T13:31:24;6.55;;;5.03;;
40635;SDS011;26642;55.766;37.828;2023-06-26T13:33:50;5.22;;;4.72;;
40635;SDS011;26642;55.766;37.828;2023-06-26T13:36:19;5.00;;;4.50;;
40635;SDS011;26642;55.766;37.828;2023-06-26T13:38:46;8.50;;;5.30;;
40635;SDS011;26642;55.766;37.828;2023-06-26T13:41:14;6.03;;;5.43;;
40635;SDS011;26642;55.766;37.828;2023-06-26T13:43:40;6.18;;;5.00;;
40635;SDS011;26642;55.766;37.828;2023-06-26T13:46:06;5.93;;;5.05;;
40635;SDS011;26642;55.766;37.828;2023-06-26T13:48:32;7.53;;;5.07;;
40635;SDS011;26642;55.766;37.828;2023-06-26T13:50:58;5.50;;;5.00;;
40635;SDS011;26642;55.766;37.828;2023-06-26T13:53:25;6.32;;;5.30;;
40635;SDS011;26642;55.766;37.828;2023-06-26T13:55:51;6.05;;;5.45;;
40635;SDS011;26642;55.766;37.828;2023-06-26T13:58:17;6.63;;;5.72;;
40635;SDS011;26642;55.766;37.828;2023-06-26T14:00:44;5.85;;;5.35;;
40635;SDS011;26642;55.766;37.828;2023-06-26T14:03:10;5.60;;;5.10;;
40635;SDS011;26642;55.766;37.828;2023-06-26T14:05:36;7.57;;;5.75;;
40635;SDS011;26642;55.766;37.828;2023-06-26T14:08:03;6.00;;;5.40;;
40635;SDS011;26642;55.766;37.828;2023-06-26T14:10:30;8.60;;;5.15;;
40635;SDS011;26642;55.766;37.828;2023-06-26T14:12:58;5.97;;;5.15;;
40635;SDS011;26642;55.766;37.828;2023-06-26T14:15:25;6.60;;;5.78;;
40635;SDS011;26642;55.766;37.828;2023-06-26T14:17:51;5.18;;;4.68;;
40635;SDS011;26642;55.766;37.828;2023-06-26T14:20:17;7.20;;;5.45;;
40635;SDS011;26642;55.766;37.828;2023-06-26T14:22:47;5.85;;;5.10;;
40635;SDS011;26642;55.766;37.828;2023-06-26T14:25:14;6.70;;;5.53;;
40635;SDS011;26642;55.766;37.828;2023-06-26T14:27:41;5.90;;;5.30;;
40635;SDS011;26642;55.766;37.828;2023-06-26T14:30:07;6.30;;;4.97;;
40635;SDS011;26642;55.766;37.828;2023-06-26T14:32:34;5.57;;;5.07;;
40635;SDS011;26642;55.766;37.828;2023-06-26T14:35:00;6.85;;;4.88;;
40635;SDS011;26642;55.766;37.828;2023-06-26T14:37:28;5.97;;;4.82;;
40635;SDS011;26642;55.766;37.828;2023-06-26T14:39:55;5.55;;;4.90;;
40635;SDS011;26642;55.766;37.828;2023-06-26T14:42:22;6.25;;;4.90;;
40635;SDS011;26642;55.766;37.828;2023-06-26T14:44:48;5.55;;;4.75;;
40635;SDS011;26642;55.766;37.828;2023-06-26T14:47:18;5.00;;;4.60;;
40635;SDS011;26642;55.766;37.828;2023-06-26T14:49:45;5.50;;;4.78;;